Terminal Aerodrome Forecast
Issued by NWS Sterling, VA

Current Version | Previous Version | Text Only | Print | Product List | Glossary Off
Versions: 1 2 3 4 5 6 7 8 9 10 11 12 13 14 15 16 17 18 19 20 21 22 23 24 25 26 27 28

000
FTUS41 KLWX 240243 AAA
TAFDCA
TAF AMD
KDCA 240243Z 2403/2424 18004KT 6SM -SHRA BKN070
      TEMPO 2403/2405 24010G20KT 3SM -TSRA BKN035CB
     FM240600 23004KT P6SM BKN050
     FM241200 27006KT P6SM SCT250
     FM241400 29007KT P6SM SCT035=

USA.gov is the U.S. government's official web portal to all federal, state and local government web resources and services.